Time;durP1;ratioP1;P1;durP2;ratioP2;P2;SDS_P1;SDS_P2;PMS_P1;PMS_P2;Temp;Humidity;BMP_temperature;BMP_pressure;BME280_temperature;BME280_humidity;BME280_pressure;Samples;Min_cycle;Max_cycle;Signal;HPM_P1;HPM_P2
2021/09/18 00:01:27;;;;;;;27.07;23.87;;;17.80;99.90;;;;;;5035107;28;20567;-68
2021/09/18 00:03:53;;;;;;;27.43;24.77;;;17.80;99.90;;;;;;5047897;28;20177;-68
2021/09/18 00:06:19;;;;;;;27.37;24.57;;;17.70;99.90;;;;;;5053691;28;20233;-68
2021/09/18 00:08:44;;;;;;;26.63;23.93;;;17.70;99.90;;;;;;5053394;28;20208;-68
2021/09/18 00:11:10;;;;;;;26.87;24.10;;;17.70;99.90;;;;;;5053636;28;20259;-68
2021/09/18 00:13:36;;;;;;;27.50;23.77;;;17.70;99.90;;;;;;5054805;28;20602;-68
2021/09/18 00:16:01;;;;;;;26.70;24.10;;;17.70;99.90;;;;;;5054065;28;20224;-69
2021/09/18 00:18:27;;;;;;;27.43;24.77;;;17.60;99.90;;;;;;5054666;28;20170;-68
2021/09/18 00:20:53;;;;;;;27.57;24.67;;;17.60;99.90;;;;;;5054696;28;20685;-68
2021/09/18 00:23:19;;;;;;;27.00;24.50;;;17.60;99.90;;;;;;5051995;28;20174;-68
2021/09/18 00:25:45;;;;;;;25.30;22.73;;;17.60;99.90;;;;;;5054435;28;20524;-68
2021/09/18 00:28:11;;;;;;;25.13;22.73;;;17.60;99.90;;;;;;5053442;28;20182;-68
2021/09/18 00:30:36;;;;;;;26.83;24.27;;;17.60;99.90;;;;;;5054278;28;20181;-68
2021/09/18 00:33:03;;;;;;;26.67;24.07;;;17.60;99.90;;;;;;5053670;28;20252;-69
2021/09/18 00:35:29;;;;;;;27.37;24.47;;;17.60;99.90;;;;;;5054373;28;20577;-68
2021/09/18 00:37:54;;;;;;;25.73;23.27;;;17.60;99.90;;;;;;5038998;28;20496;-68
2021/09/18 00:40:20;;;;;;;26.73;24.17;;;17.60;99.90;;;;;;5015926;28;20453;-68
2021/09/18 00:42:46;;;;;;;29.50;25.13;;;17.50;99.90;;;;;;5016323;28;20182;-68
2021/09/18 00:45:12;;;;;;;24.90;22.40;;;17.50;99.90;;;;;;5033803;28;20468;-68
2021/09/18 00:47:38;;;;;;;27.10;24.50;;;17.50;99.90;;;;;;5053954;28;20182;-68
2021/09/18 00:50:05;;;;;;;28.23;25.37;;;17.50;99.90;;;;;;5053166;28;20548;-69
2021/09/18 00:52:30;;;;;;;29.33;26.43;;;17.60;99.90;;;;;;5065242;28;20501;-68
2021/09/18 00:54:57;;;;;;;28.33;25.70;;;17.60;99.90;;;;;;5073621;28;20910;-67
2021/09/18 00:57:23;;;;;;;28.00;25.20;;;17.60;99.90;;;;;;5073222;28;20176;-68
2021/09/18 00:59:49;;;;;;;30.77;27.70;;;17.60;99.90;;;;;;5073943;28;20418;-68
2021/09/18 01:02:15;;;;;;;30.63;27.40;;;17.60;99.90;;;;;;5071694;28;20403;-68
2021/09/18 01:04:41;;;;;;;27.70;24.90;;;17.60;99.90;;;;;;5073811;28;20499;-68
2021/09/18 01:07:08;;;;;;;29.77;26.77;;;17.60;99.90;;;;;;5073065;28;20177;-68
2021/09/18 01:09:34;;;;;;;28.50;25.50;;;17.70;99.90;;;;;;5073886;28;20404;-68
2021/09/18 01:12:05;;;;;;;28.93;25.93;;;17.70;99.90;;;;;;5063310;28;20434;-74
2021/09/18 01:14:31;;;;;;;30.20;27.20;;;17.70;99.90;;;;;;5053521;28;20825;-68
2021/09/18 01:16:57;;;;;;;28.07;25.17;;;17.70;99.90;;;;;;5053656;28;20507;-68
2021/09/18 01:19:23;;;;;;;27.83;24.97;;;17.60;99.90;;;;;;5052775;28;20435;-68
2021/09/18 01:21:50;;;;;;;27.03;24.27;;;17.60;99.90;;;;;;5053575;28;20170;-68
2021/09/18 01:24:17;;;;;;;27.73;25.03;;;17.70;99.90;;;;;;5052809;28;20174;-68
2021/09/18 01:26:45;;;;;;;30.03;26.20;;;17.70;99.90;;;;;;5053455;28;20538;-68
2021/09/18 01:29:11;;;;;;;27.37;24.60;;;17.70;99.90;;;;;;5052366;28;20405;-68
2021/09/18 01:31:41;;;;;;;27.57;24.77;;;17.70;99.90;;;;;;5059120;28;20770;-68
2021/09/18 01:34:07;;;;;;;28.60;25.80;;;17.70;99.90;;;;;;5071358;28;20173;-68
2021/09/18 01:36:34;;;;;;;28.90;25.90;;;17.70;99.90;;;;;;5073147;28;20752;-68
2021/09/18 01:39:00;;;;;;;27.67;24.97;;;17.70;99.90;;;;;;5073221;28;20593;-68
2021/09/18 01:41:33;;;;;;;30.30;27.13;;;17.70;99.90;;;;;;5070993;28;20517;-68
2021/09/18 01:43:59;;;;;;;30.80;27.70;;;17.80;99.90;;;;;;5071715;28;20173;-68
2021/09/18 01:46:25;;;;;;;27.83;25.20;;;17.80;99.90;;;;;;5052268;28;20451;-69
2021/09/18 01:48:52;;;;;;;28.83;25.70;;;17.70;99.90;;;;;;5052641;28;20182;-68
2021/09/18 01:51:18;;;;;;;29.10;26.00;;;17.70;99.90;;;;;;5050545;28;20431;-68
2021/09/18 01:53:45;;;;;;;27.80;25.20;;;17.80;99.90;;;;;;5052916;28;20428;-68
2021/09/18 01:56:11;;;;;;;29.13;26.33;;;17.80;99.90;;;;;;5052076;28;20404;-68
2021/09/18 01:58:37;;;;;;;31.10;27.70;;;17.80;99.90;;;;;;5052786;28;20487;-69
2021/09/18 02:01:03;;;;;;;28.40;25.43;;;17.80;99.90;;;;;;5052640;28;20610;-74
2021/09/18 02:03:34;;;;;;;28.93;26.13;;;17.80;99.90;;;;;;5052284;28;20407;-68
2021/09/18 02:05:59;;;;;;;29.77;26.57;;;17.80;99.90;;;;;;5034971;28;20447;-68
2021/09/18 02:08:26;;;;;;;30.27;27.27;;;17.70;99.90;;;;;;5049807;28;20943;-68
2021/09/18 02:10:53;;;;;;;28.67;25.80;;;17.70;99.90;;;;;;5052911;28;20499;-68
2021/09/18 02:13:20;;;;;;;28.40;25.60;;;17.70;99.90;;;;;;5051764;28;20404;-68
2021/09/18 02:15:46;;;;;;;28.77;25.77;;;17.70;99.90;;;;;;5052645;28;20493;-68
2021/09/18 02:18:12;;;;;;;29.33;26.33;;;17.70;99.90;;;;;;5051189;28;20912;-68
2021/09/18 02:20:38;;;;;;;30.13;27.10;;;17.60;99.90;;;;;;5052512;28;20166;-68
2021/09/18 02:23:06;;;;;;;30.00;26.17;;;17.60;99.90;;;;;;5050723;28;20540;-73
2021/09/18 02:25:32;;;;;;;27.87;24.93;;;17.60;99.90;;;;;;5052244;28;20495;-68
2021/09/18 02:27:58;;;;;;;29.03;26.03;;;17.60;99.90;;;;;;5052238;28;20452;-68
2021/09/18 02:30:27;;;;;;;29.47;26.47;;;17.60;99.90;;;;;;5051523;28;21202;-68
2021/09/18 02:32:54;;;;;;;31.27;27.90;;;17.60;99.90;;;;;;5052613;28;20449;-68
2021/09/18 02:35:22;;;;;;;29.77;26.57;;;17.60;99.90;;;;;;5051037;28;20431;-68
2021/09/18 02:37:52;;;;;;;31.10;27.77;;;17.50;99.90;;;;;;5051765;28;20785;-68
2021/09/18 02:40:18;;;;;;;29.77;26.77;;;17.50;99.90;;;;;;5033641;28;20400;-68
2021/09/18 02:42:46;;;;;;;30.43;27.13;;;17.40;99.90;;;;;;5045981;28;20452;-68
2021/09/18 02:45:13;;;;;;;28.40;25.50;;;17.40;99.90;;;;;;5031321;28;20476;-69
2021/09/18 02:47:39;;;;;;;28.53;24.63;;;17.40;99.90;;;;;;5032929;28;20432;-68
2021/09/18 02:50:07;;;;;;;29.40;26.27;;;17.30;99.90;;;;;;5014619;28;20417;-68
2021/09/18 02:52:33;;;;;;;29.63;26.57;;;17.30;99.90;;;;;;5031807;28;20401;-68
2021/09/18 02:54:59;;;;;;;29.83;26.73;;;17.30;99.90;;;;;;5033315;28;20820;-68
2021/09/18 02:57:25;;;;;;;30.17;26.97;;;17.30;99.90;;;;;;5034556;28;20412;-68
2021/09/18 02:59:51;;;;;;;29.63;26.70;;;17.30;99.90;;;;;;5051601;28;20404;-69
2021/09/18 03:02:17;;;;;;;27.93;25.23;;;17.30;99.90;;;;;;5039820;28;20911;-68
2021/09/18 03:04:42;;;;;;;28.13;25.20;;;17.30;99.90;;;;;;5036198;28;20221;-68
2021/09/18 03:07:08;;;;;;;27.30;24.57;;;17.30;99.90;;;;;;5035673;28;20406;-74
2021/09/18 03:09:34;;;;;;;30.87;25.63;;;17.20;99.90;;;;;;5035755;28;20615;-68
2021/09/18 03:12:00;;;;;;;29.27;26.27;;;17.20;99.90;;;;;;5042149;28;20184;-68
2021/09/18 03:14:26;;;;;;;31.47;28.13;;;17.20;99.90;;;;;;5054552;28;20622;-68
2021/09/18 03:16:51;;;;;;;29.60;26.60;;;17.20;99.90;;;;;;5050618;28;20634;-68
2021/09/18 03:19:17;;;;;;;29.27;26.20;;;17.20;99.90;;;;;;5049431;28;20188;-69
2021/09/18 03:21:43;;;;;;;27.93;24.90;;;17.10;99.90;;;;;;5037282;28;20174;-68
2021/09/18 03:24:09;;;;;;;29.47;26.37;;;17.10;99.90;;;;;;5053424;28;20173;-68
2021/09/18 03:26:34;;;;;;;41.27;27.97;;;17.10;99.90;;;;;;5055924;28;20209;-68
2021/09/18 03:29:02;;;;;;;30.00;26.80;;;17.10;99.90;;;;;;5055982;28;20181;-68
2021/09/18 03:31:29;;;;;;;29.30;26.10;;;17.00;99.90;;;;;;5053755;28;20518;-68
2021/09/18 03:33:54;;;;;;;30.83;27.00;;;17.00;99.90;;;;;;5046568;28;20427;-69
2021/09/18 03:36:20;;;;;;;29.13;26.03;;;16.90;99.90;;;;;;5055272;28;20400;-69
2021/09/18 03:38:46;;;;;;;29.80;26.73;;;16.90;99.90;;;;;;5055494;28;20250;-69
2021/09/18 03:41:12;;;;;;;31.17;27.27;;;16.80;99.90;;;;;;5055160;28;20170;-69
2021/09/18 03:43:37;;;;;;;32.33;27.60;;;16.80;99.90;;;;;;5055766;28;20201;-68
2021/09/18 03:46:03;;;;;;;31.13;27.40;;;16.70;99.90;;;;;;5055121;28;20275;-69
2021/09/18 03:48:29;;;;;;;31.97;28.67;;;16.70;99.90;;;;;;5044240;28;20660;-67
2021/09/18 03:50:55;;;;;;;30.73;27.63;;;16.60;99.90;;;;;;5053255;28;20189;-66
2021/09/18 03:53:21;;;;;;;29.60;26.40;;;16.60;99.90;;;;;;5054977;28;20409;-66
2021/09/18 03:55:47;;;;;;;28.23;25.40;;;16.60;99.90;;;;;;5050137;28;20201;-66
2021/09/18 03:58:12;;;;;;;29.90;26.90;;;16.60;99.90;;;;;;5038187;28;20186;-68
2021/09/18 04:00:38;;;;;;;28.43;25.33;;;16.60;99.90;;;;;;5034940;28;20179;-66
2021/09/18 04:03:04;;;;;;;33.30;28.30;;;16.60;99.90;;;;;;5042541;28;20178;-66
2021/09/18 04:05:30;;;;;;;31.53;28.13;;;16.60;99.90;;;;;;5054651;28;20216;-66
2021/09/18 04:07:55;;;;;;;31.00;27.73;;;16.60;99.90;;;;;;5055315;28;20166;-66
2021/09/18 04:10:21;;;;;;;30.97;27.67;;;16.60;99.90;;;;;;5054641;28;20176;-66
2021/09/18 04:12:47;;;;;;;29.57;26.57;;;16.50;99.90;;;;;;5036688;28;20577;-65
2021/09/18 04:15:12;;;;;;;28.47;25.57;;;16.50;99.90;;;;;;5053083;28;20186;-65
2021/09/18 04:17:38;;;;;;;30.90;27.70;;;16.50;99.90;;;;;;5054795;28;20178;-64
2021/09/18 04:20:05;;;;;;;28.40;25.47;;;16.50;99.90;;;;;;5054671;28;20614;-65
2021/09/18 04:22:31;;;;;;;29.70;26.60;;;16.50;99.90;;;;;;5054185;28;20178;-65
2021/09/18 04:24:57;;;;;;;31.93;28.53;;;16.40;99.90;;;;;;5054901;28;20868;-65
2021/09/18 04:27:23;;;;;;;31.17;27.33;;;16.40;99.90;;;;;;5054043;28;20404;-65
2021/09/18 04:29:49;;;;;;;32.80;29.30;;;16.30;99.90;;;;;;5054918;28;20941;-64
2021/09/18 04:32:14;;;;;;;36.00;31.50;;;16.30;99.90;;;;;;5054228;28;20220;-65
2021/09/18 04:34:40;;;;;;;36.17;30.50;;;16.30;99.90;;;;;;5054877;28;20178;-65
2021/09/18 04:37:06;;;;;;;34.17;30.47;;;16.30;99.90;;;;;;5054469;28;20173;-65
2021/09/18 04:39:31;;;;;;;31.30;27.83;;;16.20;99.90;;;;;;5054121;28;20707;-65
2021/09/18 04:41:57;;;;;;;30.50;27.30;;;16.20;99.90;;;;;;5054746;28;20181;-65
2021/09/18 04:44:23;;;;;;;31.53;28.10;;;16.10;99.90;;;;;;5053642;28;20701;-64
2021/09/18 04:46:49;;;;;;;33.50;29.93;;;16.10;99.90;;;;;;5054598;28;20213;-65
2021/09/18 04:49:14;;;;;;;33.13;29.57;;;16.10;99.90;;;;;;5053915;28;20176;-65
2021/09/18 04:51:40;;;;;;;33.03;29.50;;;16.00;99.90;;;;;;5054200;28;20918;-65
2021/09/18 04:54:06;;;;;;;35.20;28.77;;;16.00;99.90;;;;;;5054537;28;20189;-65
2021/09/18 04:56:32;;;;;;;28.70;25.70;;;16.00;99.90;;;;;;5053749;28;20545;-65
2021/09/18 04:58:58;;;;;;;30.10;25.90;;;16.00;99.90;;;;;;5054508;28;20192;-64
2021/09/18 05:01:24;;;;;;;36.07;27.97;;;15.90;99.90;;;;;;5053388;28;20177;-65
2021/09/18 05:03:49;;;;;;;35.63;29.37;;;15.90;99.90;;;;;;5054197;28;20728;-65
2021/09/18 05:06:15;;;;;;;34.07;28.77;;;15.90;99.90;;;;;;5053602;28;20282;-65
2021/09/18 05:08:41;;;;;;;37.90;29.70;;;15.90;99.90;;;;;;5054300;28;20184;-65
2021/09/18 05:11:06;;;;;;;33.37;29.77;;;15.90;99.90;;;;;;5054236;28;20243;-65
2021/09/18 05:13:32;;;;;;;35.53;28.87;;;15.90;99.90;;;;;;5053487;28;20262;-65
2021/09/18 05:15:58;;;;;;;37.73;30.63;;;15.80;99.90;;;;;;5053696;28;20235;-65
2021/09/18 05:18:24;;;;;;;31.70;28.10;;;15.80;99.90;;;;;;5053366;28;20629;-65
2021/09/18 05:20:49;;;;;;;33.17;29.30;;;15.80;99.90;;;;;;5054008;28;20276;-65
2021/09/18 05:23:15;;;;;;;32.97;29.10;;;15.80;99.90;;;;;;5035578;28;20177;-65
2021/09/18 05:25:41;;;;;;;32.03;28.53;;;15.80;99.90;;;;;;5052719;28;20236;-65
2021/09/18 05:28:07;;;;;;;36.87;30.97;;;15.80;99.90;;;;;;5036063;28;20173;-65
2021/09/18 05:30:32;;;;;;;34.90;30.57;;;15.80;99.90;;;;;;5053139;28;20204;-65
2021/09/18 05:32:58;;;;;;;34.43;30.73;;;15.80;99.90;;;;;;5053655;28;20220;-65
2021/09/18 05:35:24;;;;;;;36.70;30.73;;;15.90;99.90;;;;;;5053033;28;20265;-65
2021/09/18 05:37:49;;;;;;;37.60;31.63;;;15.90;99.90;;;;;;5053648;28;20276;-64
2021/09/18 05:40:15;;;;;;;35.80;30.87;;;15.90;99.90;;;;;;5053315;28;20177;-67
2021/09/18 05:42:41;;;;;;;36.30;30.27;;;15.90;99.90;;;;;;5053115;28;20629;-65
2021/09/18 05:45:08;;;;;;;36.00;32.10;;;15.90;99.90;;;;;;5053108;28;20477;-66
2021/09/18 05:47:34;;;;;;;36.47;30.93;;;15.90;99.90;;;;;;5044541;28;20533;-66
2021/09/18 05:50:00;;;;;;;37.63;32.00;;;15.90;99.90;;;;;;5053149;28;20407;-65
2021/09/18 05:52:25;;;;;;;35.57;30.60;;;15.90;99.90;;;;;;5051303;28;20592;-65
2021/09/18 05:54:51;;;;;;;237.77;186.37;;;15.80;99.90;;;;;;5033680;28;20193;-64
2021/09/18 05:57:17;;;;;;;72.93;57.33;;;15.80;99.90;;;;;;5032679;28;20178;-66
2021/09/18 05:59:43;;;;;;;44.10;35.27;;;15.90;99.90;;;;;;5033437;28;20223;-65
2021/09/18 06:02:09;;;;;;;38.60;31.40;;;15.90;99.90;;;;;;5033217;28;20397;-65
2021/09/18 06:04:35;;;;;;;37.83;31.30;;;15.90;99.90;;;;;;5039047;28;20212;-65
2021/09/18 06:07:01;;;;;;;35.27;29.20;;;15.90;99.90;;;;;;5052974;28;20877;-65
2021/09/18 06:09:26;;;;;;;36.50;31.20;;;16.00;99.90;;;;;;5046590;28;20173;-65
2021/09/18 06:11:52;;;;;;;33.37;28.77;;;16.00;99.90;;;;;;5037399;28;20185;-67
2021/09/18 06:14:18;;;;;;;33.33;29.70;;;16.00;99.90;;;;;;5050175;28;20181;-72
2021/09/18 06:16:43;;;;;;;35.13;30.40;;;16.10;99.90;;;;;;5048496;28;20216;-67
2021/09/18 06:19:11;;;;;;;34.50;30.60;;;16.20;99.90;;;;;;5014995;28;20202;-67
2021/09/18 06:21:38;;;;;;;36.67;30.37;;;16.30;99.90;;;;;;5032903;28;20184;-67
2021/09/18 06:24:10;;;;;;;33.00;27.90;;;16.40;99.90;;;;;;5049814;28;20772;-67
2021/09/18 06:26:36;;;;;;;32.43;28.83;;;16.50;99.90;;;;;;5051660;28;20439;-67
2021/09/18 06:29:02;;;;;;;34.10;30.40;;;16.60;99.90;;;;;;5051562;28;20505;-67
2021/09/18 06:31:28;;;;;;;34.70;29.90;;;16.70;99.90;;;;;;5050925;28;20423;-67
2021/09/18 06:33:54;;;;;;;31.63;28.33;;;16.80;99.90;;;;;;5048741;28;20444;-67
2021/09/18 06:36:19;;;;;;;35.40;29.97;;;16.80;99.90;;;;;;5031746;28;20209;-73
2021/09/18 06:38:45;;;;;;;38.57;31.33;;;16.90;99.90;;;;;;5031836;28;20181;-67
2021/09/18 06:41:11;;;;;;;39.67;31.90;;;16.90;99.90;;;;;;5014582;28;20170;-67
2021/09/18 06:43:37;;;;;;;39.87;31.27;;;17.00;99.90;;;;;;5030838;28;20185;-67
2021/09/18 06:46:03;;;;;;;35.43;31.70;;;17.00;99.90;;;;;;5032092;28;20229;-67
2021/09/18 06:48:29;;;;;;;34.57;30.67;;;17.10;99.90;;;;;;5032228;28;20190;-67
2021/09/18 06:50:55;;;;;;;34.77;30.60;;;17.10;99.90;;;;;;5033258;28;20804;-67
2021/09/18 06:53:21;;;;;;;33.53;29.93;;;17.20;99.90;;;;;;5031840;28;20182;-73
2021/09/18 06:55:47;;;;;;;38.10;30.50;;;17.20;99.90;;;;;;5039956;28;20223;-66
2021/09/18 06:58:13;;;;;;;34.13;30.53;;;17.20;99.90;;;;;;5018104;28;20208;-67
2021/09/18 07:00:39;;;;;;;37.87;31.90;;;17.30;99.90;;;;;;5032298;28;20634;-67
2021/09/18 07:03:05;;;;;;;39.10;30.80;;;17.30;99.90;;;;;;5033003;28;20424;-67
2021/09/18 07:05:31;;;;;;;36.87;30.80;;;17.40;99.90;;;;;;5013507;28;20457;-67
2021/09/18 07:07:57;;;;;;;38.73;30.50;;;17.40;99.90;;;;;;5032216;28;20511;-66
2021/09/18 07:10:23;;;;;;;32.50;27.77;;;17.50;99.90;;;;;;5050671;28;20209;-75
2021/09/18 07:12:49;;;;;;;36.80;30.60;;;17.50;99.90;;;;;;5044519;28;20440;-67
2021/09/18 07:15:15;;;;;;;42.33;32.80;;;17.60;99.90;;;;;;5014328;28;20421;-67
2021/09/18 07:17:41;;;;;;;35.87;29.17;;;17.60;99.90;;;;;;5031148;28;20413;-67
2021/09/18 07:20:08;;;;;;;34.27;29.87;;;17.60;99.90;;;;;;5043114;28;20412;-67
2021/09/18 07:22:34;;;;;;;36.57;30.50;;;17.70;99.90;;;;;;5050466;28;20435;-67
2021/09/18 07:24:59;;;;;;;35.27;30.00;;;17.70;99.90;;;;;;5045415;28;20793;-67
2021/09/18 07:27:26;;;;;;;34.63;30.90;;;17.70;99.90;;;;;;5031177;28;20419;-75
2021/09/18 07:29:52;;;;;;;37.27;31.90;;;17.80;99.90;;;;;;5041542;28;20177;-67
2021/09/18 07:32:18;;;;;;;38.53;32.40;;;17.80;99.90;;;;;;5051641;28;20459;-67
2021/09/18 07:34:44;;;;;;;38.30;31.10;;;17.90;99.90;;;;;;5051002;28;20511;-67
2021/09/18 07:37:10;;;;;;;38.00;32.37;;;18.00;99.90;;;;;;5021016;28;20451;-66
2021/09/18 07:39:36;;;;;;;37.73;30.70;;;17.90;99.90;;;;;;5047568;28;20220;-66
2021/09/18 07:42:02;;;;;;;39.53;31.83;;;17.90;99.90;;;;;;5048297;28;20174;-67
2021/09/18 07:44:28;;;;;;;38.30;32.67;;;17.90;99.90;;;;;;5016964;28;20929;-67
2021/09/18 07:46:54;;;;;;;39.70;33.20;;;17.90;99.90;;;;;;5031312;28;20506;-67
2021/09/18 07:49:20;;;;;;;37.80;32.73;;;18.00;99.90;;;;;;5034475;28;20273;-66
2021/09/18 07:51:46;;;;;;;40.37;33.73;;;17.90;99.90;;;;;;5017360;28;20210;-67
2021/09/18 07:54:11;;;;;;;42.03;35.30;;;17.90;99.90;;;;;;5035025;28;20676;-67
2021/09/18 07:56:38;;;;;;;41.40;35.93;;;17.90;99.90;;;;;;5046724;28;20178;-67
2021/09/18 07:59:04;;;;;;;44.40;36.90;;;17.90;99.90;;;;;;5053964;28;20174;-67
2021/09/18 08:01:33;;;;;;;39.93;35.30;;;18.00;99.90;;;;;;5054352;28;20412;-68
2021/09/18 08:04:01;;;;;;;45.67;36.97;;;18.10;99.90;;;;;;5055161;28;20810;-67
2021/09/18 08:06:32;;;;;;;44.67;35.67;;;18.20;99.90;;;;;;5037658;28;20479;-73
2021/09/18 08:08:58;;;;;;;32.63;28.77;;;18.20;99.90;;;;;;5035339;28;20470;-66
2021/09/18 08:11:25;;;;;;;37.37;33.17;;;18.30;99.90;;;;;;5034936;28;20425;-66
2021/09/18 08:13:52;;;;;;;35.43;30.77;;;18.60;99.90;;;;;;5034136;28;20551;-67
2021/09/18 08:16:18;;;;;;;38.83;33.50;;;18.80;99.90;;;;;;5035119;28;20524;-66
2021/09/18 08:18:44;;;;;;;41.90;34.27;;;19.00;99.90;;;;;;5033987;28;20466;-66
2021/09/18 08:21:11;;;;;;;34.43;30.17;;;19.10;99.90;;;;;;5017228;28;20826;-66
2021/09/18 08:23:37;;;;;;;27.77;25.07;;;19.30;99.90;;;;;;5034018;28;20166;-66
2021/09/18 08:26:04;;;;;;;42.53;31.73;;;19.40;99.90;;;;;;5034617;28;20888;-66
2021/09/18 08:28:30;;;;;;;40.83;34.93;;;19.60;99.90;;;;;;5033713;28;20923;-71
2021/09/18 08:30:55;;;;;;;42.37;34.97;;;19.80;99.90;;;;;;5034564;28;20425;-66
2021/09/18 08:33:21;;;;;;;45.13;38.10;;;19.80;99.90;;;;;;5034312;28;20612;-66
2021/09/18 08:35:47;;;;;;;41.30;36.53;;;19.90;99.90;;;;;;5033714;28;20185;-67
2021/09/18 08:38:13;;;;;;;43.37;37.10;;;20.00;99.90;;;;;;5034303;28;20181;-66
2021/09/18 08:40:39;;;;;;;46.37;37.50;;;20.00;99.90;;;;;;5035631;28;20182;-66
2021/09/18 08:43:06;;;;;;;40.77;36.10;;;20.10;99.90;;;;;;5054373;28;20178;-66
2021/09/18 08:45:32;;;;;;;34.20;30.13;;;20.20;99.90;;;;;;5055581;28;20825;-68
2021/09/18 08:48:01;;;;;;;48.03;40.60;;;20.20;99.90;;;;;;5074029;28;20423;-67
2021/09/18 08:50:28;;;;;;;38.93;32.90;;;20.20;99.90;;;;;;5072935;28;20772;-72
2021/09/18 08:52:54;;;;;;;38.60;33.73;;;20.40;99.90;;;;;;5073673;28;20407;-67
2021/09/18 08:55:21;;;;;;;31.07;27.80;;;20.40;99.90;;;;;;5074017;28;20833;-67
2021/09/18 08:57:47;;;;;;;49.83;41.87;;;20.60;99.90;;;;;;5054575;28;20763;-67
2021/09/18 09:00:31;;;;;;;36.43;32.53;;;20.80;99.90;;;;;;5052024;28;20409;-66
2021/09/18 09:02:59;;;;;;;45.97;40.43;;;20.90;99.90;;;;;;5060765;28;20203;-66
2021/09/18 09:05:31;;;;;;;39.47;35.13;;;20.80;99.90;;;;;;5053355;28;20502;-67
2021/09/18 09:08:09;;;;;;;44.27;38.20;;;20.90;99.90;;;;;;5070742;28;20399;-66
2021/09/18 09:10:37;;;;;;;34.13;30.60;;;21.10;99.90;;;;;;5069660;28;20742;-66
2021/09/18 09:13:07;;;;;;;45.23;38.07;;;21.20;99.90;;;;;;5053639;28;20446;-67
2021/09/18 09:15:34;;;;;;;30.93;27.73;;;21.30;99.90;;;;;;5060065;28;20428;-66
2021/09/18 09:18:26;;;;;;;38.80;32.60;;;21.50;99.90;;;;;;5052660;28;20423;-66
2021/09/18 09:21:12;;;;;;;39.90;35.60;;;21.60;99.90;;;;;;5068549;28;20526;-68
2021/09/18 09:23:39;;;;;;;38.70;34.43;;;21.80;99.90;;;;;;5071013;28;20407;-66
2021/09/18 09:26:05;;;;;;;35.33;31.57;;;21.90;99.90;;;;;;5071320;28;20462;-66
2021/09/18 09:28:37;;;;;;;32.10;28.77;;;21.90;99.80;;;;;;5055478;28;20408;-70
2021/09/18 09:31:26;;;;;;;28.33;25.43;;;21.90;99.90;;;;;;5067552;28;20168;-67
2021/09/18 09:34:15;;;;;;;28.83;25.43;;;22.10;99.90;;;;;;5071059;28;20400;-65
2021/09/18 09:36:45;;;;;;;35.37;31.20;;;22.30;99.90;;;;;;5072572;28;20415;-66
2021/09/18 09:39:16;;;;;;;34.63;30.97;;;22.40;99.30;;;;;;5071022;28;20414;-66
2021/09/18 09:41:49;;;;;;;34.00;30.30;;;22.40;99.00;;;;;;5072358;28;20394;-66
2021/09/18 09:44:20;;;;;;;34.43;30.73;;;22.10;98.40;;;;;;5071644;28;20450;-66
2021/09/18 09:47:02;;;;;;;34.00;30.10;;;22.20;99.50;;;;;;5052166;28;20498;-66
2021/09/18 09:49:47;;;;;;;31.53;28.30;;;22.10;99.80;;;;;;5048234;28;20427;-66
2021/09/18 09:52:31;;;;;;;28.10;25.30;;;22.30;99.60;;;;;;5032983;28;20405;-66
2021/09/18 09:55:06;;;;;;;25.50;23.00;;;22.30;99.00;;;;;;5032652;28;20403;-68
2021/09/18 09:57:32;;;;;;;26.97;24.17;;;22.60;99.70;;;;;;5041985;28;20427;-74
2021/09/18 09:59:59;;;;;;;28.13;25.23;;;22.90;98.90;;;;;;5052181;28;20423;-66
2021/09/18 10:02:25;;;;;;;27.40;24.60;;;22.90;96.30;;;;;;5052759;28;20172;-67
2021/09/18 10:04:51;;;;;;;24.10;21.60;;;22.90;97.90;;;;;;5051905;28;21029;-67
2021/09/18 10:07:17;;;;;;;27.37;24.57;;;23.20;98.00;;;;;;5036911;28;20451;-67
2021/09/18 10:09:44;;;;;;;24.57;22.00;;;23.50;96.60;;;;;;5033244;28;20208;-68
2021/09/18 10:12:14;;;;;;;25.70;22.67;;;23.60;96.50;;;;;;5040449;28;20845;-67
2021/09/18 10:14:47;;;;;;;25.20;22.60;;;23.40;94.30;;;;;;5051382;28;20888;-68
2021/09/18 10:17:13;;;;;;;26.17;23.47;;;23.20;93.50;;;;;;5038467;28;20418;-67
2021/09/18 10:24:54;;;;;;;21.07;18.90;;;23.40;96.20;;;;;;5031686;28;21080;-67
2021/09/18 10:27:23;;;;;;;22.17;20.07;;;23.70;96.10;;;;;;5033172;28;20974;-67
2021/09/18 10:29:50;;;;;;;23.63;21.37;;;23.90;95.40;;;;;;5031949;28;20478;-71
2021/09/18 10:32:17;;;;;;;23.97;21.53;;;24.30;95.70;;;;;;5033403;28;20428;-68
2021/09/18 10:34:43;;;;;;;23.77;21.47;;;24.40;93.10;;;;;;5031796;28;20448;-68
2021/09/18 10:37:35;;;;;;;23.70;21.20;;;24.40;92.50;;;;;;5044331;28;20479;-70
2021/09/18 10:40:13;;;;;;;20.90;18.90;;;24.60;94.60;;;;;;5051421;28;20181;-69
2021/09/18 10:42:46;;;;;;;761.47;561.47;;;24.90;92.50;;;;;;5039376;28;20431;-69
2021/09/18 10:45:13;;;;;;;54.00;46.90;;;25.10;92.00;;;;;;5031918;28;20467;-69
2021/09/18 10:47:47;;;;;;;60.57;52.57;;;25.20;93.50;;;;;;5051868;28;20428;-70
2021/09/18 10:50:22;;;;;;;23.97;21.63;;;25.40;91.80;;;;;;5031962;28;20775;-68
2021/09/18 10:53:04;;;;;;;19.10;17.50;;;25.40;90.00;;;;;;5043965;28;20932;-68
2021/09/18 10:55:48;;;;;;;17.10;15.60;;;25.10;87.40;;;;;;5029666;28;20973;-71
2021/09/18 10:58:14;;;;;;;14.57;13.37;;;24.70;86.80;;;;;;5029426;28;20423;-69
2021/09/18 11:00:41;;;;;;;21.70;19.80;;;24.90;87.00;;;;;;5029671;28;20782;-67
2021/09/18 11:03:08;;;;;;;21.10;19.20;;;24.60;88.20;;;;;;5030760;28;20548;-68
2021/09/18 11:05:44;;;;;;;19.97;17.97;;;24.30;90.80;;;;;;5040702;28;20936;-68
2021/09/18 11:08:13;;;;;;;20.10;18.17;;;24.70;92.00;;;;;;5050362;28;20927;-68
2021/09/18 11:10:45;;;;;;;21.57;19.50;;;25.00;91.30;;;;;;5051248;28;20462;-68
2021/09/18 11:13:11;;;;;;;27.40;24.60;;;25.00;91.20;;;;;;5033409;28;20432;-70
2021/09/18 11:15:48;;;;;;;27.70;25.27;;;25.00;90.90;;;;;;5028403;28;20425;-69
2021/09/18 11:18:44;;;;;;;27.00;24.23;;;24.70;91.00;;;;;;5022047;28;20457;-69
2021/09/18 11:21:12;;;;;;;27.27;24.77;;;24.50;91.50;;;;;;5048271;28;20407;-68
2021/09/18 11:23:53;;;;;;;25.03;22.70;;;24.30;91.10;;;;;;5051684;28;20476;-69
2021/09/18 11:26:47;;;;;;;25.97;23.27;;;24.10;91.10;;;;;;5055712;28;20769;-69
2021/09/18 11:29:34;;;;;;;25.00;22.67;;;23.90;91.50;;;;;;5052330;28;20511;-68
2021/09/18 11:32:32;;;;;;;24.80;22.30;;;23.80;92.60;;;;;;5032956;28;20413;-67
2021/09/18 11:34:57;;;;;;;25.50;23.10;;;23.70;92.70;;;;;;5017005;28;20854;-67
2021/09/18 11:37:33;;;;;;;24.10;22.00;;;23.70;93.30;;;;;;5039454;28;20555;-67
2021/09/18 11:40:07;;;;;;;23.87;21.67;;;23.90;95.00;;;;;;5048542;28;20649;-68
2021/09/18 11:42:42;;;;;;;21.30;19.40;;;24.20;94.00;;;;;;5033714;28;20454;-67
2021/09/18 11:45:15;;;;;;;22.03;20.03;;;24.60;93.50;;;;;;5034878;28;20494;-66
2021/09/18 11:47:43;;;;;;;21.17;19.17;;;24.90;91.90;;;;;;5034631;28;20413;-68
2021/09/18 11:50:22;;;;;;;24.70;22.40;;;25.10;91.20;;;;;;5035331;28;20512;-66
2021/09/18 11:52:48;;;;;;;20.87;19.10;;;25.30;90.80;;;;;;5034524;28;20415;-67
2021/09/18 11:55:34;;;;;;;21.60;19.70;;;25.50;90.60;;;;;;5035265;28;20756;-66
2021/09/18 11:58:09;;;;;;;19.60;17.70;;;25.80;90.00;;;;;;5049496;28;20424;-67
2021/09/18 12:00:38;;;;;;;20.00;18.30;;;26.00;88.90;;;;;;5055076;28;20396;-67
2021/09/18 12:03:06;;;;;;;21.07;19.13;;;26.20;87.80;;;;;;5037053;28;20409;-66
2021/09/18 12:05:32;;;;;;;19.23;17.60;;;26.30;85.20;;;;;;5055445;28;20513;-66
2021/09/18 12:07:58;;;;;;;19.53;17.83;;;26.30;86.60;;;;;;5054540;28;20847;-67
2021/09/18 12:10:24;;;;;;;17.10;15.70;;;26.30;83.30;;;;;;5055065;28;20412;-66
2021/09/18 12:12:58;;;;;;;16.53;15.03;;;26.30;82.90;;;;;;5054636;28;20189;-67
2021/09/18 12:15:39;;;;;;;15.87;14.57;;;26.20;83.40;;;;;;5055561;28;20415;-67
2021/09/18 12:18:09;;;;;;;17.17;15.53;;;26.20;83.20;;;;;;5055262;28;20907;-66
2021/09/18 12:20:37;;;;;;;16.77;15.17;;;26.10;79.00;;;;;;5055024;28;20412;-66
2021/09/18 12:23:04;;;;;;;14.77;13.57;;;25.70;78.20;;;;;;5054441;28;20400;-66
2021/09/18 12:25:32;;;;;;;14.63;13.43;;;25.60;80.20;;;;;;5054978;28;20533;-66
2021/09/18 12:28:00;;;;;;;16.63;14.93;;;25.50;83.50;;;;;;5036688;28;20911;-66
2021/09/18 12:30:37;;;;;;;15.23;13.83;;;25.40;84.10;;;;;;5054924;28;20404;-66
2021/09/18 12:33:30;;;;;;;13.70;12.57;;;25.30;81.10;;;;;;5054151;28;20415;-66
2021/09/18 12:36:08;;;;;;;13.70;12.50;;;25.00;81.40;;;;;;5048995;28;20428;-68